Time;durP1;ratioP1;P1;durP2;ratioP2;P2;SDS_P1;SDS_P2;PMS_P1;PMS_P2;Temp;Humidity;BMP_temperature;BMP_pressure;BME280_temperature;BME280_humidity;BME280_pressure;Samples;Min_cycle;Max_cycle;Signal;HPM_P1;HPM_P2
2023/04/28 00:02:17;;;;;;;8.45;2.42;;;;;;;;;;5133457;27;20047;-63
2023/04/28 00:04:47;;;;;;;6.28;3.08;;;;;;;;;;5114568;27;20503;-63
2023/04/28 00:07:17;;;;;;;6.55;2.75;;;;;;;;;;5133273;27;20506;-63
2023/04/28 00:09:47;;;;;;;8.05;3.13;;;;;;;;;;5097426;27;20058;-63
2023/04/28 00:12:17;;;;;;;6.65;2.70;;;;;;;;;;5046829;27;20043;-62
2023/04/28 00:14:48;;;;;;;7.07;2.90;;;;;;;;;;5069632;28;20048;-62
2023/04/28 00:17:18;;;;;;;6.53;2.42;;;;;;;;;;5052811;28;20060;-62
2023/04/28 00:19:49;;;;;;;6.25;2.70;;;;;;;;;;5036423;28;20464;-63
2023/04/28 00:22:20;;;;;;;6.30;2.33;;;;;;;;;;5036242;28;20586;-63
2023/04/28 00:24:50;;;;;;;9.02;2.40;;;;;;;;;;5019933;28;20594;-62
2023/04/28 00:27:20;;;;;;;5.07;2.60;;;;;;;;;;5069781;28;20052;-63
2023/04/28 00:29:51;;;;;;;5.53;2.47;;;;;;;;;;5069536;28;20048;-62
2023/04/28 00:32:22;;;;;;;6.40;2.85;;;;;;;;;;5052209;28;20056;-66
2023/04/28 00:34:52;;;;;;;7.32;3.17;;;;;;;;;;5069054;28;20049;-62
2023/04/28 00:37:22;;;;;;;5.80;2.75;;;;;;;;;;5069600;28;20047;-61
2023/04/28 00:39:56;;;;;;;7.57;3.03;;;;;;;;;;5069294;28;20056;-61
2023/04/28 00:42:27;;;;;;;5.60;2.42;;;;;;;;;;5035847;28;20052;-62
2023/04/28 00:44:57;;;;;;;4.47;2.38;;;;;;;;;;5036046;28;20056;-63
2023/04/28 00:47:27;;;;;;;7.80;2.28;;;;;;;;;;5016061;28;20049;-62
2023/04/28 00:50:00;;;;;;;6.93;2.53;;;;;;;;;;5049023;28;20053;-62
2023/04/28 00:52:31;;;;;;;8.30;2.20;;;;;;;;;;5019076;28;20064;-63
2023/04/28 00:55:04;;;;;;;4.80;2.50;;;;;;;;;;4997623;28;20057;-63
2023/04/28 00:57:35;;;;;;;7.00;2.55;;;;;;;;;;4995123;28;20054;-62
2023/04/28 01:00:06;;;;;;;8.23;2.50;;;;;;;;;;4951551;28;20054;-63
2023/04/28 01:02:37;;;;;;;7.90;2.63;;;;;;;;;;4955047;28;20065;-63
2023/04/28 01:05:09;;;;;;;6.70;2.60;;;;;;;;;;4989771;28;20058;-63
2023/04/28 01:07:39;;;;;;;9.60;2.85;;;;;;;;;;4989656;28;20063;-63
2023/04/28 01:10:10;;;;;;;7.53;2.53;;;;;;;;;;4950557;28;20055;-64
2023/04/28 01:12:40;;;;;;;7.13;2.70;;;;;;;;;;4950778;28;20051;-63
2023/04/28 01:15:17;;;;;;;6.80;2.78;;;;;;;;;;4934558;28;20059;-63
2023/04/28 01:17:49;;;;;;;10.85;3.15;;;;;;;;;;4927347;29;20436;-64
2023/04/28 01:20:19;;;;;;;4.97;2.58;;;;;;;;;;4930860;29;20164;-64
2023/04/28 01:22:49;;;;;;;11.40;2.60;;;;;;;;;;4912217;29;20075;-63
2023/04/28 01:25:20;;;;;;;5.13;2.55;;;;;;;;;;4863507;29;20061;-62
2023/04/28 01:27:51;;;;;;;4.68;3.00;;;;;;;;;;4874621;29;20053;-63
2023/04/28 01:30:21;;;;;;;6.05;2.47;;;;;;;;;;4885671;29;20060;-63
2023/04/28 01:32:52;;;;;;;5.50;2.70;;;;;;;;;;4893470;29;20060;-63
2023/04/28 01:35:22;;;;;;;6.55;2.70;;;;;;;;;;4892724;29;20068;-63
2023/04/28 01:37:52;;;;;;;4.88;2.70;;;;;;;;;;4893348;29;20060;-63
2023/04/28 01:40:22;;;;;;;5.38;2.88;;;;;;;;;;4874373;29;20433;-63
2023/04/28 01:42:53;;;;;;;10.95;2.60;;;;;;;;;;4871056;29;20061;-63
2023/04/28 01:45:23;;;;;;;4.72;2.42;;;;;;;;;;4886072;29;20069;-62
2023/04/28 01:47:53;;;;;;;4.25;2.28;;;;;;;;;;4871390;29;20058;-64
2023/04/28 01:50:24;;;;;;;4.50;2.30;;;;;;;;;;4859709;29;20510;-63
2023/04/28 01:52:54;;;;;;;5.43;2.65;;;;;;;;;;4893052;29;20052;-64
2023/04/28 01:55:24;;;;;;;6.18;2.35;;;;;;;;;;4910596;29;20059;-63
2023/04/28 01:57:56;;;;;;;5.97;2.83;;;;;;;;;;4920769;29;20056;-64
2023/04/28 02:00:29;;;;;;;5.68;2.72;;;;;;;;;;4916055;29;20059;-62
2023/04/28 02:03:00;;;;;;;5.20;2.53;;;;;;;;;;4914851;29;20055;-63
2023/04/28 02:05:30;;;;;;;5.80;2.58;;;;;;;;;;4928011;28;20055;-63
2023/04/28 02:08:00;;;;;;;5.93;2.58;;;;;;;;;;4899282;29;20087;-63
2023/04/28 02:10:30;;;;;;;5.40;2.75;;;;;;;;;;4914571;29;20378;-62
2023/04/28 02:13:02;;;;;;;7.47;2.75;;;;;;;;;;4899574;29;20056;-63
2023/04/28 02:15:34;;;;;;;7.43;2.67;;;;;;;;;;4881353;29;20075;-62
2023/04/28 02:18:04;;;;;;;5.95;3.03;;;;;;;;;;4887266;29;20072;-62
2023/04/28 02:20:34;;;;;;;5.15;2.35;;;;;;;;;;4887445;29;20057;-62
2023/04/28 02:23:05;;;;;;;7.38;2.70;;;;;;;;;;4896757;29;20714;-62
2023/04/28 02:25:35;;;;;;;7.63;2.97;;;;;;;;;;4896454;29;20548;-62
2023/04/28 02:28:05;;;;;;;6.53;3.00;;;;;;;;;;4911666;29;20562;-62
2023/04/28 02:30:36;;;;;;;7.28;3.30;;;;;;;;;;4877537;29;20638;-63
2023/04/28 02:33:07;;;;;;;10.15;3.40;;;;;;;;;;4877665;29;20540;-64
2023/04/28 02:35:38;;;;;;;9.35;3.47;;;;;;;;;;4877662;29;20057;-63
2023/04/28 02:38:08;;;;;;;7.97;2.65;;;;;;;;;;4892342;29;20173;-64
2023/04/28 02:40:38;;;;;;;6.50;2.72;;;;;;;;;;4855830;29;20056;-63
2023/04/28 02:43:09;;;;;;;4.97;2.60;;;;;;;;;;4893072;29;20239;-64
2023/04/28 02:45:39;;;;;;;7.82;2.90;;;;;;;;;;4892978;29;20068;-63
2023/04/28 02:48:09;;;;;;;6.85;3.50;;;;;;;;;;4877738;29;20059;-64
2023/04/28 02:50:39;;;;;;;6.70;2.42;;;;;;;;;;4893000;29;20056;-64
2023/04/28 02:53:09;;;;;;;5.32;2.70;;;;;;;;;;4877312;29;20061;-64
2023/04/28 02:55:40;;;;;;;7.28;2.55;;;;;;;;;;4892806;29;20128;-64
2023/04/28 02:58:10;;;;;;;10.90;2.80;;;;;;;;;;4859991;29;20058;-66
2023/04/28 03:00:40;;;;;;;12.88;3.20;;;;;;;;;;4877309;29;20055;-64
2023/04/28 03:03:10;;;;;;;6.10;2.92;;;;;;;;;;4894432;29;20052;-64
2023/04/28 03:05:41;;;;;;;5.43;2.92;;;;;;;;;;4895845;29;20083;-63
2023/04/28 03:08:10;;;;;;;7.18;3.17;;;;;;;;;;4885337;29;20049;-63
2023/04/28 03:10:40;;;;;;;6.10;3.30;;;;;;;;;;4879754;29;20075;-63
2023/04/28 03:13:11;;;;;;;9.25;2.97;;;;;;;;;;4912527;29;20048;-64
2023/04/28 03:15:43;;;;;;;9.30;3.53;;;;;;;;;;4912439;29;20067;-64
2023/04/28 03:18:14;;;;;;;6.57;3.10;;;;;;;;;;4924894;29;20082;-64
2023/04/28 03:20:44;;;;;;;6.07;2.90;;;;;;;;;;4948524;28;20052;-64
2023/04/28 03:23:15;;;;;;;5.30;2.67;;;;;;;;;;4902798;28;20044;-64
2023/04/28 03:25:45;;;;;;;7.97;2.65;;;;;;;;;;4952299;28;20050;-64
2023/04/28 03:28:15;;;;;;;5.65;2.78;;;;;;;;;;4952153;28;20511;-64
2023/04/28 03:30:45;;;;;;;9.40;3.00;;;;;;;;;;4913365;29;20048;-64
2023/04/28 03:33:16;;;;;;;6.00;2.67;;;;;;;;;;4914096;29;20059;-62
2023/04/28 03:35:46;;;;;;;8.77;2.70;;;;;;;;;;4895084;29;20049;-64
2023/04/28 03:38:17;;;;;;;7.95;2.97;;;;;;;;;;4895051;29;20056;-64
2023/04/28 03:40:48;;;;;;;7.78;3.38;;;;;;;;;;4897644;29;20063;-63
2023/04/28 03:43:38;;;;;;;6.60;3.38;;;;;;;;;;4921363;29;20460;-63
2023/04/28 03:46:17;;;;;;;11.90;2.90;;;;;;;;;;4919956;29;20052;-64
2023/04/28 03:48:47;;;;;;;7.78;3.05;;;;;;;;;;4901302;29;20053;-63
2023/04/28 03:51:19;;;;;;;8.13;2.92;;;;;;;;;;4917097;29;20358;-64
2023/04/28 03:53:49;;;;;;;10.88;3.92;;;;;;;;;;4900993;29;20089;-64
2023/04/28 03:56:19;;;;;;;14.23;4.00;;;;;;;;;;4929144;29;20067;-64
2023/04/28 03:58:50;;;;;;;12.38;3.63;;;;;;;;;;4853898;29;20066;-63
2023/04/28 04:01:20;;;;;;;8.05;3.10;;;;;;;;;;4851172;29;20054;-64
2023/04/28 04:03:50;;;;;;;7.55;3.25;;;;;;;;;;4894659;29;20417;-64
2023/04/28 04:06:21;;;;;;;6.60;3.15;;;;;;;;;;4891796;29;20528;-64
2023/04/28 04:08:51;;;;;;;6.97;2.80;;;;;;;;;;4916068;29;20052;-64
2023/04/28 04:11:21;;;;;;;5.72;2.78;;;;;;;;;;4887411;29;20522;-64
2023/04/28 04:13:51;;;;;;;5.30;2.72;;;;;;;;;;4869876;29;20053;-64
2023/04/28 04:16:24;;;;;;;;;;;;;;;;;;4873229;29;20053;-63
2023/04/28 04:18:56;;;;;;;6.05;2.90;;;;;;;;;;4838619;29;19947;-63
2023/04/28 04:21:52;;;;;;;7.60;2.92;;;;;;;;;;4876140;29;20053;-63
2023/04/28 04:24:24;;;;;;;8.02;2.67;;;;;;;;;;4841619;29;20057;-64
2023/04/28 04:26:54;;;;;;;7.47;3.20;;;;;;;;;;4826149;29;20050;-64
2023/04/28 04:29:42;;;;;;;7.38;3.45;;;;;;;;;;4807744;29;20387;-64
2023/04/28 04:32:14;;;;;;;5.25;2.47;;;;;;;;;;4853032;29;20442;-64
2023/04/28 04:34:45;;;;;;;6.28;2.80;;;;;;;;;;4856475;29;20058;-64
2023/04/28 04:37:15;;;;;;;6.25;3.35;;;;;;;;;;4857673;29;20063;-63
2023/04/28 04:39:52;;;;;;;6.63;2.60;;;;;;;;;;4856782;29;20581;-63
2023/04/28 04:42:22;;;;;;;7.85;2.83;;;;;;;;;;4890487;29;20060;-63
2023/04/28 04:45:08;;;;;;;6.38;3.00;;;;;;;;;;4894153;29;20064;-63
2023/04/28 04:47:39;;;;;;;9.10;3.05;;;;;;;;;;4876146;29;20068;-64
2023/04/28 04:50:10;;;;;;;6.85;2.88;;;;;;;;;;4875289;29;20064;-64
2023/04/28 04:52:42;;;;;;;6.43;3.35;;;;;;;;;;4841802;29;20461;-63
2023/04/28 04:55:12;;;;;;;11.95;2.92;;;;;;;;;;4857273;29;20049;-64
2023/04/28 04:57:43;;;;;;;6.63;2.83;;;;;;;;;;4881425;29;20063;-63
2023/04/28 05:00:32;;;;;;;7.47;2.65;;;;;;;;;;4838421;29;20069;-64
2023/04/28 05:03:02;;;;;;;6.18;2.78;;;;;;;;;;4873152;29;20417;-63
2023/04/28 05:05:33;;;;;;;6.13;2.92;;;;;;;;;;4905110;29;20049;-63
2023/04/28 05:08:17;;;;;;;5.90;2.60;;;;;;;;;;4893673;29;20063;-64
2023/04/28 05:10:48;;;;;;;6.30;3.05;;;;;;;;;;4909927;29;20071;-63
2023/04/28 05:13:20;;;;;;;6.75;3.03;;;;;;;;;;4889884;29;20060;-65
2023/04/28 05:15:56;;;;;;;5.82;2.85;;;;;;;;;;4868618;29;20740;-64
2023/04/28 05:18:49;;;;;;;8.23;2.65;;;;;;;;;;4858507;29;20045;-63
2023/04/28 05:21:21;;;;;;;10.32;2.95;;;;;;;;;;4874481;29;20052;-64
2023/04/28 05:23:52;;;;;;;6.28;2.92;;;;;;;;;;4893303;29;20052;-63
2023/04/28 05:26:23;;;;;;;5.40;2.75;;;;;;;;;;4911633;29;20071;-63
2023/04/28 05:28:57;;;;;;;8.68;3.30;;;;;;;;;;4912136;29;20059;-63
2023/04/28 05:31:27;;;;;;;6.30;2.90;;;;;;;;;;4886437;29;20057;-64
2023/04/28 05:33:58;;;;;;;5.10;2.85;;;;;;;;;;4905210;29;20061;-64
2023/04/28 05:36:30;;;;;;;5.80;2.83;;;;;;;;;;4943906;29;20048;-63
2023/04/28 05:39:01;;;;;;;9.65;2.80;;;;;;;;;;4888267;29;20560;-64
2023/04/28 05:41:31;;;;;;;6.63;2.72;;;;;;;;;;4862379;29;20538;-64
2023/04/28 05:44:01;;;;;;;6.20;3.42;;;;;;;;;;4871853;29;20069;-64
2023/04/28 05:46:31;;;;;;;7.03;2.95;;;;;;;;;;4889491;29;20064;-63
2023/04/28 05:49:02;;;;;;;7.30;3.20;;;;;;;;;;4892888;29;20521;-64
2023/04/28 05:51:36;;;;;;;7.70;2.72;;;;;;;;;;4911939;29;20048;-63
2023/04/28 05:54:06;;;;;;;5.68;2.90;;;;;;;;;;4925076;29;20056;-63
2023/04/28 05:56:42;;;;;;;7.18;2.50;;;;;;;;;;4930402;29;20054;-63
2023/04/28 05:59:12;;;;;;;6.40;2.50;;;;;;;;;;4911908;29;20048;-64
2023/04/28 06:01:43;;;;;;;5.30;2.78;;;;;;;;;;4872974;29;20063;-64
2023/04/28 06:04:14;;;;;;;7.70;3.22;;;;;;;;;;4930515;29;20521;-63
2023/04/28 06:06:45;;;;;;;6.03;2.83;;;;;;;;;;4921764;29;20563;-61
2023/04/28 06:09:15;;;;;;;7.35;2.85;;;;;;;;;;4932317;29;20056;-61
2023/04/28 06:11:45;;;;;;;8.48;2.90;;;;;;;;;;4873360;29;20048;-62
2023/04/28 06:14:16;;;;;;;5.63;2.50;;;;;;;;;;4854220;29;20164;-61
2023/04/28 06:16:46;;;;;;;8.65;2.47;;;;;;;;;;4797372;29;20054;-61
2023/04/28 06:19:20;;;;;;;7.35;2.85;;;;;;;;;;4870791;29;20057;-62
2023/04/28 06:21:51;;;;;;;6.53;2.85;;;;;;;;;;4874459;29;20057;-61
2023/04/28 06:24:22;;;;;;;8.13;2.75;;;;;;;;;;4868723;29;20060;-62
2023/04/28 06:26:54;;;;;;;;;;;;;;;;;;4863820;29;20056;-61
2023/04/28 06:29:26;;;;;;;10.32;2.83;;;;;;;;;;4900136;29;19923;-62
2023/04/28 06:31:56;;;;;;;6.03;2.60;;;;;;;;;;4911724;29;20052;-61
2023/04/28 06:34:27;;;;;;;5.30;2.50;;;;;;;;;;4885614;29;20084;-61
2023/04/28 06:37:00;;;;;;;11.73;2.90;;;;;;;;;;4893012;29;20060;-61
2023/04/28 06:39:31;;;;;;;8.65;2.70;;;;;;;;;;4893059;29;20557;-63
2023/04/28 06:42:02;;;;;;;7.22;2.67;;;;;;;;;;4913396;29;20079;-64
2023/04/28 06:44:36;;;;;;;7.72;2.75;;;;;;;;;;4957707;28;20058;-63
2023/04/28 06:47:06;;;;;;;8.07;2.97;;;;;;;;;;4917982;29;20070;-64
2023/04/28 06:49:39;;;;;;;6.03;2.83;;;;;;;;;;4884347;29;20049;-64
2023/04/28 06:52:10;;;;;;;6.80;2.97;;;;;;;;;;4915092;29;20408;-64
2023/04/28 06:54:40;;;;;;;8.50;3.00;;;;;;;;;;4915457;29;20067;-64
2023/04/28 06:57:11;;;;;;;8.00;2.92;;;;;;;;;;4930783;29;20064;-63
2023/04/28 06:59:43;;;;;;;8.55;3.20;;;;;;;;;;4914068;29;20062;-64
2023/04/28 07:02:13;;;;;;;6.30;3.33;;;;;;;;;;4921192;29;20051;-64
2023/04/28 07:04:44;;;;;;;8.70;2.97;;;;;;;;;;4974798;28;20055;-63
2023/04/28 07:07:14;;;;;;;6.63;2.85;;;;;;;;;;4972616;28;20051;-64
2023/04/28 07:09:44;;;;;;;9.88;2.88;;;;;;;;;;4961561;28;20047;-63
2023/04/28 07:12:17;;;;;;;7.60;2.90;;;;;;;;;;4953130;29;20059;-64
2023/04/28 07:14:47;;;;;;;7.07;3.30;;;;;;;;;;4953199;29;20467;-63
2023/04/28 07:17:21;;;;;;;5.95;2.80;;;;;;;;;;4953060;29;20074;-63
2023/04/28 07:19:51;;;;;;;8.13;2.70;;;;;;;;;;4940954;28;20059;-64
2023/04/28 07:22:21;;;;;;;7.22;2.72;;;;;;;;;;5012898;28;20061;-63
2023/04/28 07:24:52;;;;;;;7.35;3.35;;;;;;;;;;5030740;28;20041;-63
2023/04/28 07:27:22;;;;;;;6.15;3.10;;;;;;;;;;5031083;28;20053;-63
2023/04/28 07:29:52;;;;;;;8.65;2.90;;;;;;;;;;4997966;28;20069;-63
2023/04/28 07:32:23;;;;;;;6.18;2.85;;;;;;;;;;5014331;28;20049;-63
2023/04/28 07:34:53;;;;;;;6.70;3.58;;;;;;;;;;5030838;28;20473;-64
2023/04/28 07:37:23;;;;;;;6.97;2.53;;;;;;;;;;5061867;28;20596;-63
2023/04/28 07:39:53;;;;;;;6.35;2.83;;;;;;;;;;5058281;28;20412;-63
2023/04/28 07:42:23;;;;;;;6.80;2.63;;;;;;;;;;5091014;28;20044;-63
2023/04/28 07:44:53;;;;;;;7.80;3.10;;;;;;;;;;5102433;28;20056;-64
2023/04/28 07:47:24;;;;;;;6.00;2.60;;;;;;;;;;5113230;28;20062;-63
2023/04/28 07:49:54;;;;;;;6.65;3.05;;;;;;;;;;5077741;28;20059;-66
2023/04/28 07:52:24;;;;;;;5.97;2.70;;;;;;;;;;5113599;28;20040;-64
2023/04/28 07:54:54;;;;;;;6.63;2.70;;;;;;;;;;5113372;28;20044;-63
2023/04/28 07:57:25;;;;;;;5.38;2.75;;;;;;;;;;5113444;28;20048;-63
2023/04/28 07:59:55;;;;;;;5.68;2.85;;;;;;;;;;5113397;28;20076;-63
2023/04/28 08:02:38;;;;;;;11.90;3.10;;;;;;;;;;5113592;28;20055;-63
2023/04/28 08:05:09;;;;;;;6.65;2.88;;;;;;;;;;5113267;28;20043;-65
2023/04/28 08:07:40;;;;;;;6.00;2.72;;;;;;;;;;5080801;27;20055;-64
2023/04/28 08:10:11;;;;;;;5.20;2.60;;;;;;;;;;5089900;28;20056;-64
2023/04/28 08:12:44;;;;;;;7.20;3.58;;;;;;;;;;5056743;28;20380;-63
2023/04/28 08:15:14;;;;;;;5.90;2.67;;;;;;;;;;5056492;28;20074;-63
2023/04/28 08:17:46;;;;;;;8.18;2.80;;;;;;;;;;5090122;28;20052;-64
2023/04/28 08:20:18;;;;;;;7.88;3.60;;;;;;;;;;5090181;28;20044;-63
2023/04/28 08:22:52;;;;;;;5.30;3.03;;;;;;;;;;5090034;28;20124;-64
2023/04/28 08:25:22;;;;;;;5.63;2.83;;;;;;;;;;5089983;28;20036;-63
2023/04/28 08:27:54;;;;;;;8.88;2.90;;;;;;;;;;5049633;28;20049;-64
2023/04/28 08:30:25;;;;;;;7.25;2.33;;;;;;;;;;5033009;28;20049;-64
2023/04/28 08:32:55;;;;;;;10.13;2.38;;;;;;;;;;5049577;28;20053;-62
2023/04/28 08:35:26;;;;;;;8.20;2.88;;;;;;;;;;5016265;28;20420;-62
2023/04/28 08:37:57;;;;;;;5.40;2.55;;;;;;;;;;5049656;28;20187;-62
2023/04/28 08:40:30;;;;;;;6.50;3.00;;;;;;;;;;5049672;28;20056;-62
2023/04/28 08:43:00;;;;;;;6.53;2.75;;;;;;;;;;5017730;28;20053;-62
2023/04/28 08:45:32;;;;;;;7.18;3.22;;;;;;;;;;5049685;28;20049;-62
2023/04/28 08:48:04;;;;;;;7.30;3.22;;;;;;;;;;4991422;28;20511;-64
2023/04/28 08:50:36;;;;;;;8.50;3.75;;;;;;;;;;5089695;28;20044;-62
2023/04/28 08:53:06;;;;;;;6.75;3.55;;;;;;;;;;5040868;28;20051;-63
2023/04/28 08:55:37;;;;;;;8.20;3.25;;;;;;;;;;5023923;28;20056;-62
2023/04/28 08:58:08;;;;;;;7.95;3.63;;;;;;;;;;5089616;28;20048;-62
2023/04/28 09:00:39;;;;;;;9.00;4.18;;;;;;;;;;5068987;28;20040;-62
2023/04/28 09:03:11;;;;;;;10.15;4.00;;;;;;;;;;5069111;28;20056;-62
2023/04/28 09:05:42;;;;;;;8.95;3.92;;;;;;;;;;5064272;28;20066;-63
2023/04/28 09:08:12;;;;;;;8.07;3.70;;;;;;;;;;5072637;28;20048;-63
2023/04/28 09:10:43;;;;;;;7.80;3.13;;;;;;;;;;5055413;28;20059;-63
2023/04/28 09:13:25;;;;;;;7.15;3.35;;;;;;;;;;5038626;28;20052;-65
2023/04/28 09:16:00;;;;;;;8.52;3.65;;;;;;;;;;5022967;28;20727;-62
2023/04/28 09:18:32;;;;;;;7.03;3.65;;;;;;;;;;5055451;28;20044;-62
2023/04/28 09:21:07;;;;;;;11.73;4.20;;;;;;;;;;5088413;28;20040;-63
2023/04/28 09:23:49;;;;;;;8.70;3.60;;;;;;;;;;5048665;28;20052;-63
2023/04/28 09:26:19;;;;;;;9.30;4.00;;;;;;;;;;5048696;28;20068;-62
2023/04/28 09:28:49;;;;;;;10.50;4.68;;;;;;;;;;5048442;28;20069;-63
2023/04/28 09:31:27;;;;;;;9.30;4.13;;;;;;;;;;5015610;28;20049;-63
2023/04/28 09:33:58;;;;;;;8.43;4.10;;;;;;;;;;5015537;28;20571;-63
2023/04/28 09:36:29;;;;;;;9.75;4.05;;;;;;;;;;5015560;28;20064;-62
2023/04/28 09:39:00;;;;;;;9.93;4.03;;;;;;;;;;5034577;28;20416;-62
2023/04/28 09:41:39;;;;;;;11.18;4.20;;;;;;;;;;5038520;28;20071;-63
2023/04/28 09:44:14;;;;;;;11.73;3.55;;;;;;;;;;5039189;28;20052;-62
2023/04/28 09:46:46;;;;;;;11.75;4.00;;;;;;;;;;5088628;28;20507;-63
2023/04/28 09:49:16;;;;;;;10.65;3.60;;;;;;;;;;5088921;28;20060;-63
2023/04/28 09:51:46;;;;;;;14.65;3.58;;;;;;;;;;5038386;28;20055;-62
2023/04/28 09:54:21;;;;;;;14.38;3.47;;;;;;;;;;5102241;28;20051;-62
2023/04/28 09:56:52;;;;;;;14.70;4.28;;;;;;;;;;5131819;28;20077;-62
2023/04/28 09:59:24;;;;;;;13.95;4.07;;;;;;;;;;5112362;28;20060;-62
2023/04/28 10:01:54;;;;;;;12.90;3.95;;;;;;;;;;5131581;28;20040;-62
2023/04/28 10:04:24;;;;;;;14.77;3.90;;;;;;;;;;5131771;28;20106;-63
2023/04/28 10:06:56;;;;;;;12.75;4.00;;;;;;;;;;5078578;28;20051;-62
2023/04/28 10:09:27;;;;;;;20.13;4.35;;;;;;;;;;5131749;28;20513;-63
2023/04/28 10:11:58;;;;;;;14.43;4.53;;;;;;;;;;5062469;28;20054;-63
2023/04/28 10:14:30;;;;;;;12.63;4.35;;;;;;;;;;5078449;28;20057;-62
2023/04/28 10:17:02;;;;;;;16.90;4.65;;;;;;;;;;5078702;28;20055;-63
2023/04/28 10:19:34;;;;;;;13.77;4.55;;;;;;;;;;5078539;28;20532;-62
2023/04/28 10:22:10;;;;;;;16.77;5.53;;;;;;;;;;5131442;28;20062;-62
2023/04/28 10:25:07;;;;;;;14.85;4.88;;;;;;;;;;5108349;28;20052;-63
2023/04/28 10:27:42;;;;;;;10.43;4.50;;;;;;;;;;5075563;28;20052;-62
2023/04/28 10:30:15;;;;;;;17.10;4.43;;;;;;;;;;5075581;28;20048;-62
2023/04/28 10:33:11;;;;;;;13.50;5.15;;;;;;;;;;5108737;28;20517;-64
2023/04/28 10:35:44;;;;;;;9.73;4.82;;;;;;;;;;5112208;28;20406;-62
2023/04/28 10:38:20;;;;;;;;;;;;;;;;;;5112505;28;20415;-62
2023/04/28 10:41:01;;;;;;;13.95;4.32;;;;;;;;;;5093322;28;19919;-62
2023/04/28 10:43:36;;;;;;;9.10;4.55;;;;;;;;;;5094843;28;20059;-62
2023/04/28 10:46:08;;;;;;;8.75;4.53;;;;;;;;;;5074250;28;20063;-62
2023/04/28 10:48:48;;;;;;;19.08;4.25;;;;;;;;;;5058979;28;20491;-62
2023/04/28 10:51:18;;;;;;;12.50;4.80;;;;;;;;;;5059866;28;20052;-62
2023/04/28 10:53:49;;;;;;;15.73;5.00;;;;;;;;;;5094392;28;20063;-62
2023/04/28 10:56:24;;;;;;;11.63;4.28;;;;;;;;;;5078376;28;20529;-62
2023/04/28 10:58:57;;;;;;;11.07;4.53;;;;;;;;;;5079020;28;20071;-63
2023/04/28 11:01:30;;;;;;;9.18;4.82;;;;;;;;;;5081404;27;20047;-63
2023/04/28 11:04:12;;;;;;;14.13;4.70;;;;;;;;;;5117006;27;20039;-62
2023/04/28 11:06:44;;;;;;;9.82;4.50;;;;;;;;;;5101129;27;20070;-63
2023/04/28 11:09:16;;;;;;;14.18;5.63;;;;;;;;;;5081683;27;20054;-62
2023/04/28 11:12:09;;;;;;;10.07;4.82;;;;;;;;;;5098978;27;20051;-63
2023/04/28 11:14:40;;;;;;;17.52;4.10;;;;;;;;;;5116787;27;20047;-63
2023/04/28 11:17:16;;;;;;;19.15;5.07;;;;;;;;;;5080970;27;20047;-62
2023/04/28 11:19:50;;;;;;;21.50;4.40;;;;;;;;;;5096264;27;20043;-62
2023/04/28 11:22:22;;;;;;;21.92;5.93;;;;;;;;;;5083198;27;20051;-63
2023/04/28 11:25:01;;;;;;;14.38;5.28;;;;;;;;;;5099216;27;20534;-62
2023/04/28 11:27:33;;;;;;;11.32;5.32;;;;;;;;;;5132237;27;20035;-63
2023/04/28 11:30:05;;;;;;;19.40;5.55;;;;;;;;;;5131283;27;20039;-62
2023/04/28 11:32:35;;;;;;;17.83;4.03;;;;;;;;;;5087588;27;20059;-62
2023/04/28 11:35:08;;;;;;;47.42;6.22;;;;;;;;;;5096920;27;20054;-62
2023/04/28 11:37:38;;;;;;;23.50;5.38;;;;;;;;;;5012887;27;20892;-62
2023/04/28 11:40:13;;;;;;;35.63;4.78;;;;;;;;;;5080422;27;20051;-62
2023/04/28 11:42:49;;;;;;;33.50;5.63;;;;;;;;;;5106084;27;20054;-62
2023/04/28 11:45:20;;;;;;;12.50;5.32;;;;;;;;;;5069932;28;20063;-63
2023/04/28 11:47:50;;;;;;;22.50;5.53;;;;;;;;;;5037216;28;20530;-62
2023/04/28 11:50:36;;;;;;;28.55;5.05;;;;;;;;;;5070154;28;20068;-62
2023/04/28 11:53:06;;;;;;;21.10;5.43;;;;;;;;;;5036710;28;20048;-63
2023/04/28 11:55:36;;;;;;;28.15;6.45;;;;;;;;;;4976545;28;20060;-62
2023/04/28 11:58:23;;;;;;;21.17;6.30;;;;;;;;;;5044337;28;20048;-63
2023/04/28 12:01:14;;;;;;;21.50;7.13;;;;;;;;;;5037228;28;20792;-63
2023/04/28 12:03:46;;;;;;;17.95;6.25;;;;;;;;;;5069653;28;20092;-62
2023/04/28 12:06:19;;;;;;;19.75;6.97;;;;;;;;;;5070080;28;20064;-62
2023/04/28 12:08:51;;;;;;;27.10;7.22;;;;;;;;;;5037191;28;20056;-63
2023/04/28 12:11:22;;;;;;;22.00;8.13;;;;;;;;;;5036163;28;20396;-64
2023/04/28 12:14:03;;;;;;;22.70;7.97;;;;;;;;;;5004771;28;20064;-62
2023/04/28 12:16:42;;;;;;;31.63;8.43;;;;;;;;;;5059578;28;20066;-65
2023/04/28 12:19:14;;;;;;;;;;;;;;;;;;5077600;28;20456;-64
2023/04/28 12:21:57;;;;;;;33.53;10.43;;;;;;;;;;5112595;28;19934;-63
2023/04/28 12:24:27;;;;;;;38.70;15.95;;;;;;;;;;5112597;28;20039;-63
2023/04/28 12:27:23;;;;;;;25.95;10.38;;;;;;;;;;5112974;28;20046;-62
2023/04/28 12:29:55;;;;;;;30.75;9.32;;;;;;;;;;5076638;28;20052;-62
2023/04/28 12:32:44;;;;;;;37.13;10.98;;;;;;;;;;5093743;28;20059;-62
2023/04/28 12:35:14;;;;;;;41.50;11.85;;;;;;;;;;5096472;27;20075;-62
2023/04/28 12:37:45;;;;;;;35.53;10.95;;;;;;;;;;5133185;27;20047;-61
2023/04/28 12:40:15;;;;;;;39.47;12.68;;;;;;;;;;5096633;27;20054;-63
2023/04/28 12:42:46;;;;;;;37.53;12.85;;;;;;;;;;5080471;27;20054;-61
2023/04/28 12:45:17;;;;;;;38.45;12.60;;;;;;;;;;5079700;27;20054;-62
2023/04/28 12:47:47;;;;;;;43.47;12.60;;;;;;;;;;5132727;27;20490;-60
2023/04/28 12:50:18;;;;;;;43.83;15.07;;;;;;;;;;5132639;27;20414;-60
2023/04/28 12:52:49;;;;;;;42.67;13.80;;;;;;;;;;5081039;27;20051;-62
2023/04/28 12:55:19;;;;;;;38.00;12.52;;;;;;;;;;5078241;27;20078;-60
2023/04/28 12:57:49;;;;;;;47.55;15.00;;;;;;;;;;5132086;27;20035;-60
2023/04/28 13:00:22;;;;;;;41.03;12.98;;;;;;;;;;5132420;27;20058;-61
2023/04/28 13:02:52;;;;;;;38.60;12.60;;;;;;;;;;5063558;27;20062;-60
2023/04/28 13:05:22;;;;;;;35.33;12.93;;;;;;;;;;5132477;27;20047;-61
2023/04/28 13:07:53;;;;;;;39.20;13.57;;;;;;;;;;5081082;27;20410;-61
2023/04/28 13:10:25;;;;;;;32.92;11.05;;;;;;;;;;5080452;27;20058;-60
2023/04/28 13:12:55;;;;;;;27.80;10.40;;;;;;;;;;5081364;27;20402;-60
2023/04/28 13:15:26;;;;;;;37.47;12.55;;;;;;;;;;5132618;27;20513;-62
2023/04/28 13:17:58;;;;;;;37.10;12.85;;;;;;;;;;5132290;27;20402;-62
2023/04/28 13:20:29;;;;;;;38.28;13.07;;;;;;;;;;5063203;27;20047;-60
2023/04/28 13:23:00;;;;;;;30.25;11.27;;;;;;;;;;5096149;27;20054;-61
2023/04/28 13:25:30;;;;;;;29.10;10.48;;;;;;;;;;5114362;27;20040;-63
2023/04/28 13:28:01;;;;;;;27.95;11.32;;;;;;;;;;5132334;27;20047;-61
2023/04/28 13:30:33;;;;;;;27.02;10.77;;;;;;;;;;5131917;27;20059;-62
2023/04/28 13:33:03;;;;;;;23.48;8.52;;;;;;;;;;5095613;27;20058;-62
2023/04/28 13:35:33;;;;;;;16.83;6.40;;;;;;;;;;5096527;27;20042;-61
2023/04/28 13:38:03;;;;;;;21.02;7.47;;;;;;;;;;5132372;27;20395;-62
2023/04/28 13:40:34;;;;;;;13.98;5.78;;;;;;;;;;5068085;28;20542;-63
2023/04/28 13:43:05;;;;;;;12.35;5.55;;;;;;;;;;5068634;28;20060;-61
2023/04/28 13:45:35;;;;;;;12.23;5.18;;;;;;;;;;5031591;28;20056;-62
2023/04/28 13:48:05;;;;;;;10.73;5.05;;;;;;;;;;5044990;28;20068;-62
2023/04/28 13:50:35;;;;;;;13.25;5.15;;;;;;;;;;5014670;28;20052;-62
2023/04/28 13:53:07;;;;;;;13.35;5.70;;;;;;;;;;5024437;28;20045;-62
2023/04/28 13:55:37;;;;;;;12.40;5.10;;;;;;;;;;5046924;28;20049;-62
2023/04/28 13:58:07;;;;;;;10.95;4.25;;;;;;;;;;5009168;28;20052;-63
2023/04/28 14:00:40;;;;;;;7.00;3.72;;;;;;;;;;5033141;28;20045;-62
2023/04/28 14:03:10;;;;;;;6.82;2.97;;;;;;;;;;5028528;28;20477;-63
2023/04/28 14:05:41;;;;;;;5.72;2.15;;;;;;;;;;5026144;28;20069;-63
2023/04/28 14:08:18;;;;;;;4.85;1.88;;;;;;;;;;4979362;28;20050;-63
2023/04/28 14:10:50;;;;;;;3.33;1.90;;;;;;;;;;4992297;28;20066;-62
2023/04/28 14:13:20;;;;;;;4.00;2.15;;;;;;;;;;4922636;29;20435;-62
2023/04/28 14:15:53;;;;;;;4.15;1.92;;;;;;;;;;4942452;29;20051;-62
2023/04/28 14:18:28;;;;;;;6.20;1.65;;;;;;;;;;4961855;28;20550;-63
2023/04/28 14:20:58;;;;;;;6.18;2.03;;;;;;;;;;4961014;28;20063;-62
2023/04/28 14:23:28;;;;;;;4.43;1.88;;;;;;;;;;5000765;28;20521;-63
2023/04/28 14:25:58;;;;;;;4.60;2.05;;;;;;;;;;4991982;28;20051;-62
2023/04/28 14:28:28;;;;;;;4.80;1.80;;;;;;;;;;4991955;28;20057;-63
2023/04/28 14:31:05;;;;;;;5.82;2.00;;;;;;;;;;4991868;28;20053;-63
2023/04/28 14:33:36;;;;;;;3.53;1.80;;;;;;;;;;4991668;28;20062;-62
2023/04/28 14:36:07;;;;;;;4.75;2.20;;;;;;;;;;4961015;28;20038;-63
2023/04/28 14:38:37;;;;;;;4.72;2.20;;;;;;;;;;4991542;28;20055;-63
2023/04/28 14:41:08;;;;;;;3.13;1.67;;;;;;;;;;4993147;28;20529;-64
2023/04/28 14:43:38;;;;;;;3.00;1.50;;;;;;;;;;4998907;28;20055;-62
2023/04/28 14:46:09;;;;;;;3.95;1.63;;;;;;;;;;4989079;28;20057;-63
2023/04/28 14:48:40;;;;;;;4.22;1.55;;;;;;;;;;4996133;28;20524;-63
2023/04/28 14:51:10;;;;;;;3.38;1.85;;;;;;;;;;5064603;28;20051;-63
2023/04/28 14:53:40;;;;;;;4.40;2.08;;;;;;;;;;5091359;28;20051;-63
2023/04/28 14:56:11;;;;;;;3.80;1.67;;;;;;;;;;5057691;28;20060;-63
2023/04/28 14:58:48;;;;;;;4.22;1.63;;;;;;;;;;5074036;28;20044;-62
2023/04/28 15:01:18;;;;;;;4.30;1.60;;;;;;;;;;5091214;28;20614;-62
2023/04/28 15:03:49;;;;;;;6.80;1.30;;;;;;;;;;5058674;28;20060;-62
2023/04/28 15:06:21;;;;;;;3.90;2.03;;;;;;;;;;5018865;28;20064;-63
2023/04/28 15:08:52;;;;;;;3.28;1.60;;;;;;;;;;5051426;28;20056;-63